createdAt,value
2017-09-01T00:00:31.990Z,16.59
2017-09-01T00:01:45.564Z,16.54
2017-09-01T00:02:59.451Z,16.52
2017-09-01T00:04:13.663Z,16.5
2017-09-01T00:05:27.856Z,16.48
2017-09-01T00:06:41.505Z,16.46
2017-09-01T00:07:55.568Z,16.44
2017-09-01T00:09:09.492Z,16.42
2017-09-01T00:10:23.165Z,16.4
2017-09-01T00:11:37.480Z,16.39
2017-09-01T00:12:51.982Z,16.39
2017-09-01T00:14:05.927Z,16.38
2017-09-01T00:15:19.889Z,16.35
2017-09-01T00:16:33.478Z,16.34
2017-09-01T00:17:47.469Z,16.32
2017-09-01T00:19:01.164Z,16.31
2017-09-01T00:20:14.947Z,16.27
2017-09-01T00:21:29.098Z,16.24
2017-09-01T00:22:43.022Z,16.21
2017-09-01T00:23:56.637Z,16.19
2017-09-01T00:25:10.220Z,16.16
2017-09-01T00:26:24.560Z,16.12
2017-09-01T00:27:38.456Z,16.09
2017-09-01T00:28:52.717Z,16.07
2017-09-01T00:30:06.655Z,16.05
2017-09-01T00:31:20.629Z,16.03
2017-09-01T00:32:34.773Z,16.02
2017-09-01T00:33:48.715Z,16.02
2017-09-01T00:35:02.478Z,16.03
2017-09-01T00:36:16.083Z,16.05
2017-09-01T00:37:29.999Z,16.06
2017-09-01T00:38:43.643Z,16.08
2017-09-01T00:39:57.852Z,16.07
2017-09-01T00:41:11.803Z,16.06
2017-09-01T00:42:25.388Z,16.04
2017-09-01T00:43:39.328Z,16.02
2017-09-01T00:44:52.971Z,15.97
2017-09-01T00:46:07.571Z,15.95
2017-09-01T00:47:21.149Z,15.93
2017-09-01T00:48:34.876Z,15.91
2017-09-01T00:49:48.470Z,15.9
2017-09-01T00:51:02.094Z,15.87
2017-09-01T00:52:15.992Z,15.85
2017-09-01T00:53:29.587Z,15.83
2017-09-01T00:54:43.676Z,15.81
2017-09-01T00:55:57.627Z,15.8
2017-09-01T00:57:11.786Z,15.78
2017-09-01T00:58:26.018Z,15.76
2017-09-01T00:59:40.253Z,15.74
2017-09-01T01:00:53.881Z,15.72
2017-09-01T01:02:07.486Z,15.72
2017-09-01T01:03:21.616Z,15.7
2017-09-01T01:04:35.995Z,15.68
2017-09-01T01:05:49.916Z,15.63
2017-09-01T01:07:03.559Z,15.63
2017-09-01T01:08:17.249Z,15.62
2017-09-01T01:09:30.816Z,15.6
2017-09-01T01:10:44.733Z,15.6
2017-09-01T01:11:58.342Z,15.6
2017-09-01T01:13:12.532Z,15.59
2017-09-01T01:14:26.452Z,15.58
2017-09-01T01:15:40.054Z,15.58
2017-09-01T01:16:54.007Z,15.57
2017-09-01T01:18:07.654Z,15.57
2017-09-01T01:19:21.584Z,15.55
2017-09-01T01:20:35.518Z,15.54
2017-09-01T01:21:49.161Z,15.53
2017-09-01T01:23:03.054Z,15.51
2017-09-01T01:24:16.956Z,15.48
2017-09-01T01:25:30.565Z,15.45
2017-09-01T01:26:44.139Z,15.45
2017-09-01T01:27:58.280Z,15.44
2017-09-01T01:29:12.170Z,15.44
2017-09-01T01:30:25.742Z,15.43
2017-09-01T01:31:39.309Z,15.42
2017-09-01T01:32:52.885Z,15.42
2017-09-01T01:34:06.919Z,15.43
2017-09-01T01:35:21.108Z,15.43
2017-09-01T01:36:34.682Z,15.43
2017-09-01T01:37:48.663Z,15.41
2017-09-01T01:39:02.284Z,15.4
2017-09-01T01:40:16.063Z,15.38
2017-09-01T01:41:30.025Z,15.36
2017-09-01T01:42:43.642Z,15.35
2017-09-01T01:43:57.221Z,15.34
2017-09-01T01:45:11.126Z,15.34
2017-09-01T01:46:24.695Z,15.33
2017-09-01T01:47:38.601Z,15.32
2017-09-01T01:48:52.301Z,15.31
2017-09-01T01:50:05.900Z,15.3
2017-09-01T01:51:19.478Z,15.28
2017-09-01T01:52:33.072Z,15.26
2017-09-01T01:53:47.264Z,15.24
2017-09-01T01:55:01.165Z,15.21
2017-09-01T01:56:14.932Z,15.2
2017-09-01T01:57:28.834Z,15.17
2017-09-01T01:58:42.411Z,15.18
2017-09-01T01:59:56.295Z,15.17
2017-09-01T02:01:09.846Z,15.15
2017-09-01T02:02:23.405Z,15.13
2017-09-01T02:03:37.295Z,15.11
2017-09-01T02:04:50.897Z,15.09
2017-09-01T02:06:04.767Z,15.07
2017-09-01T02:07:18.330Z,15.06
2017-09-01T02:08:32.423Z,15.05
2017-09-01T02:09:45.993Z,15.04
2017-09-01T02:10:59.575Z,15.04
2017-09-01T02:12:13.497Z,15.01
2017-09-01T02:13:27.107Z,15
2017-09-01T02:14:40.789Z,14.99
2017-09-01T02:15:54.500Z,14.97
2017-09-01T02:17:08.093Z,14.96
2017-09-01T02:18:21.998Z,14.95
2017-09-01T02:19:35.700Z,14.93
2017-09-01T02:20:50.326Z,14.91
2017-09-01T02:22:03.919Z,14.87
2017-09-01T02:23:17.540Z,14.85
2017-09-01T02:24:31.458Z,14.81
2017-09-01T02:25:45.021Z,14.78
2017-09-01T02:26:58.605Z,14.74
2017-09-01T02:28:12.389Z,14.69
2017-09-01T02:29:26.166Z,14.65
2017-09-01T02:30:40.068Z,14.63
2017-09-01T02:31:53.645Z,14.62
2017-09-01T02:33:07.220Z,14.6
2017-09-01T02:34:20.800Z,14.58
2017-09-01T02:35:34.364Z,14.56
2017-09-01T02:36:48.317Z,14.54
2017-09-01T02:38:02.110Z,14.5
2017-09-01T02:39:15.671Z,14.49
2017-09-01T02:40:29.312Z,14.47
2017-09-01T02:41:43.204Z,14.47
2017-09-01T02:42:57.296Z,14.47
2017-09-01T02:44:10.899Z,14.46
2017-09-01T02:45:24.464Z,14.46
2017-09-01T02:46:38.033Z,14.48
2017-09-01T02:47:51.603Z,14.5
2017-09-01T02:49:05.489Z,14.52
2017-09-01T02:50:19.547Z,14.54
2017-09-01T02:51:33.126Z,14.55
2017-09-01T02:52:47.040Z,14.55
2017-09-01T02:54:00.614Z,14.55
2017-09-01T02:55:14.500Z,14.55
2017-09-01T02:56:28.067Z,14.57
2017-09-01T02:57:41.781Z,14.59
2017-09-01T02:58:55.740Z,14.62
2017-09-01T03:00:09.324Z,14.65
2017-09-01T03:01:23.202Z,14.69
2017-09-01T03:02:36.968Z,14.7
2017-09-01T03:03:50.562Z,14.71
2017-09-01T03:05:04.141Z,14.7
2017-09-01T03:06:18.400Z,14.7
2017-09-01T03:07:32.378Z,14.67
2017-09-01T03:08:45.993Z,14.65
2017-09-01T03:09:59.681Z,14.64
2017-09-01T03:11:13.980Z,14.6
2017-09-01T03:12:28.043Z,14.59
2017-09-01T03:13:41.893Z,14.58
2017-09-01T03:14:55.455Z,14.56
2017-09-01T03:16:09.257Z,14.54
2017-09-01T03:17:22.938Z,14.52
2017-09-01T03:18:36.499Z,14.53
2017-09-01T03:19:50.366Z,14.51
2017-09-01T03:21:03.925Z,14.53
2017-09-01T03:22:17.512Z,14.51
2017-09-01T03:23:31.333Z,14.5
2017-09-01T03:24:44.885Z,14.48
2017-09-01T03:25:58.765Z,14.45
2017-09-01T03:27:12.342Z,14.42
2017-09-01T03:28:25.907Z,14.39
2017-09-01T03:29:39.465Z,14.36
2017-09-01T03:30:53.054Z,14.35
2017-09-01T03:32:07.130Z,14.33
2017-09-01T03:33:20.684Z,14.31
2017-09-01T03:34:34.257Z,14.32
2017-09-01T03:35:47.797Z,14.32
2017-09-01T03:37:01.378Z,14.33
2017-09-01T03:38:15.750Z,14.34
2017-09-01T03:39:29.332Z,14.35
2017-09-01T03:40:42.912Z,14.38
2017-09-01T03:41:56.489Z,14.38
2017-09-01T03:43:10.151Z,14.38
2017-09-01T03:44:24.045Z,14.38
2017-09-01T03:45:37.614Z,14.39
2017-09-01T03:46:51.315Z,14.42
2017-09-01T03:48:05.062Z,14.46
2017-09-01T03:49:18.626Z,14.49
2017-09-01T03:50:32.499Z,14.55
2017-09-01T03:51:46.078Z,14.61
2017-09-01T03:52:59.901Z,14.67
2017-09-01T03:54:13.967Z,14.72
2017-09-01T03:55:27.530Z,14.79
2017-09-01T03:56:41.427Z,14.86
2017-09-01T03:57:55.010Z,14.92
2017-09-01T03:59:08.630Z,14.96
2017-09-01T04:00:22.200Z,14.97
2017-09-01T04:01:35.880Z,14.96
2017-09-01T04:02:49.762Z,14.92
2017-09-01T04:04:03.334Z,14.88
2017-09-01T04:05:17.234Z,14.83
2017-09-01T04:06:31.164Z,14.78
2017-09-01T04:07:44.739Z,14.73
2017-09-01T04:08:58.705Z,14.68
2017-09-01T04:10:12.310Z,14.62
2017-09-01T04:11:25.853Z,14.58
2017-09-01T04:12:39.769Z,14.52
2017-09-01T04:13:53.373Z,14.5
2017-09-01T04:15:07.234Z,14.48
2017-09-01T04:16:20.886Z,14.47
2017-09-01T04:17:34.469Z,14.49
2017-09-01T04:18:48.393Z,14.53
2017-09-01T04:20:01.956Z,14.56
2017-09-01T04:21:15.846Z,14.59
2017-09-01T04:22:29.766Z,14.59
2017-09-01T04:23:43.337Z,14.59
2017-09-01T04:24:57.414Z,14.59
2017-09-01T04:26:10.993Z,14.6
2017-09-01T04:27:25.213Z,14.63
2017-09-01T04:28:38.781Z,14.68
2017-09-01T04:29:52.454Z,14.71
2017-09-01T04:31:06.026Z,14.76
2017-09-01T04:32:19.597Z,14.8
2017-09-01T04:33:33.494Z,14.83
2017-09-01T04:34:47.120Z,14.86
2017-09-01T04:36:00.693Z,14.89
2017-09-01T04:37:14.902Z,14.93
2017-09-01T04:38:29.044Z,14.96
2017-09-01T04:39:42.917Z,14.99
2017-09-01T04:40:56.557Z,15
2017-09-01T04:42:10.492Z,15
2017-09-01T04:43:24.141Z,15.02
2017-09-01T04:44:37.710Z,15.04
2017-09-01T04:45:51.779Z,15.06
2017-09-01T04:47:05.394Z,15.08
2017-09-01T04:48:18.978Z,15.08
2017-09-01T04:49:32.540Z,15.09
2017-09-01T04:50:46.131Z,15.07
2017-09-01T04:52:00.189Z,15.05
2017-09-01T04:53:13.883Z,15.04
2017-09-01T04:54:27.803Z,15.03
2017-09-01T04:55:42.141Z,15.04
2017-09-01T04:56:55.699Z,15.08
2017-09-01T04:58:09.561Z,15.12
2017-09-01T04:59:23.246Z,15.18
2017-09-01T05:00:37.710Z,15.22
2017-09-01T05:01:51.351Z,15.27
2017-09-01T05:03:05.133Z,15.3
2017-09-01T05:04:19.074Z,15.37
2017-09-01T05:05:32.736Z,15.42
2017-09-01T05:06:46.437Z,15.45
2017-09-01T05:08:00.048Z,15.48
2017-09-01T05:09:14.011Z,15.47
2017-09-01T05:10:28.002Z,15.44
2017-09-01T05:11:41.657Z,15.4
2017-09-01T05:12:55.616Z,15.38
2017-09-01T05:14:09.265Z,15.35
2017-09-01T05:15:23.455Z,15.31
2017-09-01T05:16:37.496Z,15.29
2017-09-01T05:17:51.185Z,15.29
2017-09-01T05:19:05.207Z,15.26
2017-09-01T05:20:18.844Z,15.26
2017-09-01T05:21:32.506Z,15.25
2017-09-01T05:22:46.391Z,15.24
2017-09-01T05:24:00.038Z,15.24
2017-09-01T05:25:13.682Z,15.21
2017-09-01T05:26:27.348Z,15.2
2017-09-01T05:27:41.295Z,15.2
2017-09-01T05:28:55.224Z,15.19
2017-09-01T05:30:09.229Z,15.17
2017-09-01T05:31:22.859Z,15.15
2017-09-01T05:32:36.611Z,15.12
2017-09-01T05:33:50.768Z,15.1
2017-09-01T05:35:04.679Z,15.1
2017-09-01T05:36:18.374Z,15.1
2017-09-01T05:37:32.050Z,15.11
2017-09-01T05:38:46.068Z,15.13
2017-09-01T05:40:00.403Z,15.16
2017-09-01T05:41:14.674Z,15.21
2017-09-01T05:42:28.391Z,15.28
2017-09-01T05:43:41.986Z,15.33
2017-09-01T05:44:55.821Z,15.4
2017-09-01T05:46:09.443Z,15.45
2017-09-01T05:47:23.356Z,15.52
2017-09-01T05:48:37.011Z,15.57
2017-09-01T05:49:50.707Z,15.62
2017-09-01T05:51:04.352Z,15.67
2017-09-01T05:52:18.671Z,15.75
2017-09-01T05:53:32.612Z,15.82
2017-09-01T05:54:46.584Z,15.87
2017-09-01T05:56:00.231Z,15.95
2017-09-01T05:57:14.533Z,16.01
2017-09-01T05:58:28.661Z,16.06
2017-09-01T05:59:42.363Z,16.1
2017-09-01T06:00:55.976Z,16.17
2017-09-01T06:02:09.623Z,16.22
2017-09-01T06:03:23.574Z,16.28
2017-09-01T06:04:37.206Z,16.35
2017-09-01T06:05:51.936Z,16.42
2017-09-01T06:07:05.567Z,16.5
2017-09-01T06:08:19.707Z,16.58
2017-09-01T06:09:33.315Z,16.67
2017-09-01T06:10:47.036Z,16.75
2017-09-01T06:12:00.940Z,16.82
2017-09-01T06:13:14.892Z,16.89
2017-09-01T06:14:28.884Z,16.92
2017-09-01T06:15:42.547Z,17.01
2017-09-01T06:16:56.170Z,17.06
2017-09-01T06:18:10.100Z,17.16
2017-09-01T06:19:23.741Z,17.22
2017-09-01T06:20:37.442Z,17.31
2017-09-01T06:21:51.087Z,17.38
2017-09-01T06:23:04.763Z,17.45
2017-09-01T06:24:18.712Z,17.5
2017-09-01T06:25:32.379Z,17.53
2017-09-01T06:26:45.986Z,17.56
2017-09-01T06:27:59.586Z,17.58
2017-09-01T06:29:13.431Z,17.62
2017-09-01T06:30:27.342Z,17.64
2017-09-01T06:31:41.019Z,17.64
2017-09-01T06:32:54.972Z,17.65
2017-09-01T06:34:08.621Z,17.64
2017-09-01T06:35:22.805Z,17.62
2017-09-01T06:36:36.715Z,17.59
2017-09-01T06:37:50.686Z,17.57
2017-09-01T06:39:04.303Z,17.57
2017-09-01T06:40:17.947Z,17.56
2017-09-01T06:41:32.096Z,17.62
2017-09-01T06:42:46.422Z,17.64
2017-09-01T06:44:00.301Z,17.7
2017-09-01T06:45:13.904Z,17.78
2017-09-01T06:46:27.895Z,17.84
2017-09-01T06:47:41.479Z,17.94
2017-09-01T06:48:55.698Z,18.01
2017-09-01T06:50:09.279Z,18.08
2017-09-01T06:51:23.303Z,18.1
2017-09-01T06:52:36.876Z,18.13
2017-09-01T06:53:50.815Z,18.12
2017-09-01T06:55:04.779Z,18.07
2017-09-01T06:56:18.419Z,18.03
2017-09-01T06:57:32.035Z,18
2017-09-01T06:58:45.597Z,17.99
2017-09-01T06:59:59.253Z,17.93
2017-09-01T07:01:13.307Z,17.89
2017-09-01T07:02:26.885Z,17.85
2017-09-01T07:03:40.477Z,17.87
2017-09-01T07:04:54.049Z,17.93
2017-09-01T07:06:07.889Z,18
2017-09-01T07:07:21.491Z,18.08
2017-09-01T07:08:35.603Z,18.16
2017-09-01T07:09:49.209Z,18.23
2017-09-01T07:11:02.802Z,18.34
2017-09-01T07:12:16.402Z,18.42
2017-09-01T07:13:30.357Z,18.49
2017-09-01T07:14:43.981Z,18.55
2017-09-01T07:15:57.754Z,18.59
2017-09-01T07:17:11.364Z,18.59
2017-09-01T07:18:25.274Z,18.64
2017-09-01T07:19:39.185Z,18.7
2017-09-01T07:20:52.744Z,18.76
2017-09-01T07:22:07.011Z,18.83
2017-09-01T07:23:20.824Z,18.89
2017-09-01T07:24:34.754Z,18.92
2017-09-01T07:25:48.726Z,18.97
2017-09-01T07:27:02.328Z,19
2017-09-01T07:28:16.509Z,19.05
2017-09-01T07:29:30.155Z,19.09
2017-09-01T07:30:43.755Z,19.16
2017-09-01T07:31:57.668Z,19.23
2017-09-01T07:33:11.328Z,19.32
2017-09-01T07:34:24.951Z,19.42
2017-09-01T07:35:38.532Z,19.5
2017-09-01T07:36:52.954Z,19.6
2017-09-01T07:38:07.269Z,19.69
2017-09-01T07:39:20.886Z,19.74
2017-09-01T07:40:34.500Z,19.81
2017-09-01T07:41:48.260Z,19.87
2017-09-01T07:43:01.917Z,19.96
2017-09-01T07:44:16.167Z,20.04
2017-09-01T07:45:29.788Z,20.1
2017-09-01T07:46:43.379Z,20.11
2017-09-01T07:47:57.311Z,20.16
2017-09-01T07:49:11.080Z,20.15
2017-09-01T07:50:25.018Z,20.14
2017-09-01T07:51:38.795Z,20.14
2017-09-01T07:52:52.574Z,20.11
2017-09-01T07:54:06.231Z,20.12
2017-09-01T07:55:19.850Z,20.13
2017-09-01T07:56:33.724Z,20.13
2017-09-01T07:57:47.362Z,20.15
2017-09-01T07:59:01.343Z,20.18
2017-09-01T08:00:15.560Z,20.24
2017-09-01T08:01:29.238Z,20.29
2017-09-01T08:02:43.206Z,20.3
2017-09-01T08:03:56.945Z,20.37
2017-09-01T08:05:10.568Z,20.4
2017-09-01T08:06:24.481Z,20.45
2017-09-01T08:07:38.091Z,20.5
2017-09-01T08:08:52.473Z,20.54
2017-09-01T08:10:07.109Z,20.62
2017-09-01T08:11:20.751Z,20.66
2017-09-01T08:12:34.381Z,20.72
2017-09-01T08:13:48.027Z,20.79
2017-09-01T08:15:02.016Z,20.86
2017-09-01T08:16:15.630Z,20.89
2017-09-01T08:17:29.234Z,20.95
2017-09-01T08:18:43.289Z,20.98
2017-09-01T08:19:56.931Z,21.01
2017-09-01T08:21:10.917Z,21.03
2017-09-01T08:22:24.784Z,21.11
2017-09-01T08:23:38.522Z,21.19
2017-09-01T08:24:52.545Z,21.24
2017-09-01T08:26:06.518Z,21.31
2017-09-01T08:27:20.649Z,21.35
2017-09-01T08:28:34.727Z,21.39
2017-09-01T08:29:48.348Z,21.44
2017-09-01T08:31:01.968Z,21.48
2017-09-01T08:32:15.668Z,21.52
2017-09-01T08:33:29.949Z,21.54
2017-09-01T08:34:43.783Z,21.59
2017-09-01T08:35:57.407Z,21.59
2017-09-01T08:37:11.160Z,21.59
2017-09-01T08:38:25.084Z,21.6
2017-09-01T08:39:38.956Z,21.6
2017-09-01T08:40:52.599Z,21.61
2017-09-01T08:42:06.222Z,21.62
2017-09-01T08:43:20.002Z,21.61
2017-09-01T08:44:34.168Z,21.62
2017-09-01T08:45:48.703Z,21.62
2017-09-01T08:47:02.311Z,21.66
2017-09-01T08:48:15.946Z,21.69
2017-09-01T08:49:30.013Z,21.71
2017-09-01T08:50:44.004Z,21.73
2017-09-01T08:51:57.898Z,21.72
2017-09-01T08:53:11.475Z,21.67
2017-09-01T08:54:25.472Z,21.61
2017-09-01T08:55:39.075Z,21.54
2017-09-01T08:56:52.807Z,21.5
2017-09-01T08:58:06.715Z,21.5
2017-09-01T08:59:20.634Z,21.55
2017-09-01T09:00:34.737Z,21.57
2017-09-01T09:01:48.365Z,21.64
2017-09-01T09:03:01.961Z,21.7
2017-09-01T09:04:16.316Z,21.78
2017-09-01T09:05:29.937Z,21.86
2017-09-01T09:06:43.564Z,21.93
2017-09-01T09:07:57.490Z,22.01
2017-09-01T09:09:11.482Z,22.05
2017-09-01T09:10:25.398Z,22.09
2017-09-01T09:11:39.889Z,22.16
2017-09-01T09:12:53.512Z,22.18
2017-09-01T09:14:07.191Z,22.15
2017-09-01T09:15:22.254Z,22.1
2017-09-01T09:16:36.245Z,22.01
2017-09-01T09:17:49.868Z,21.99
2017-09-01T09:19:03.484Z,21.96
2017-09-01T09:20:17.130Z,21.96
2017-09-01T09:21:31.060Z,21.96
2017-09-01T09:22:45.338Z,21.97
2017-09-01T09:23:59.391Z,21.96
2017-09-01T09:25:13.453Z,22.01
2017-09-01T09:26:27.423Z,22.09
2017-09-01T09:27:41.490Z,22.14
2017-09-01T09:28:56.613Z,22.16
2017-09-01T09:30:10.532Z,22.15
2017-09-01T09:31:24.182Z,22.11
2017-09-01T09:36:06.069Z,22.23
2017-09-01T09:37:19.649Z,22.26
2017-09-01T09:38:33.515Z,22.3
2017-09-01T09:39:47.077Z,22.36
2017-09-01T09:41:00.594Z,22.43
2017-09-01T09:42:14.395Z,22.54
2017-09-01T09:43:27.928Z,22.66
2017-09-01T09:44:41.644Z,22.75
2017-09-01T09:45:55.596Z,22.79
2017-09-01T09:47:09.210Z,22.78
2017-09-01T09:48:23.033Z,22.75
2017-09-01T09:49:36.654Z,22.75
2017-09-01T09:50:50.333Z,22.76
2017-09-01T09:52:04.418Z,22.79
2017-09-01T09:53:17.941Z,22.88
2017-09-01T09:54:31.788Z,22.98
2017-09-01T09:55:45.303Z,23.08
2017-09-01T09:56:58.879Z,23.14
2017-09-01T09:58:12.747Z,23.16
2017-09-01T09:59:39.000Z,23.2
2017-09-01T10:00:52.533Z,23.23
2017-09-01T10:02:06.141Z,23.2
2017-09-01T10:03:19.714Z,23.19
2017-09-01T10:04:33.453Z,23.15
2017-09-01T10:05:47.009Z,23.08
2017-09-01T10:07:00.924Z,23.05
2017-09-01T10:08:14.739Z,23.03
2017-09-01T10:09:28.365Z,23.05
2017-09-01T10:10:41.929Z,23.08
2017-09-01T10:11:55.469Z,23.12
2017-09-01T10:13:09.664Z,23.15
2017-09-01T10:14:23.188Z,23.17
2017-09-01T10:15:36.680Z,23.13
2017-09-01T10:16:50.267Z,23.09
2017-09-01T10:18:04.095Z,23.06
2017-09-01T10:19:18.279Z,23.04
2017-09-01T10:20:31.812Z,23
2017-09-01T10:21:45.365Z,23.01
2017-09-01T10:22:58.995Z,23.06
2017-09-01T10:24:12.642Z,23.14
2017-09-01T10:25:26.501Z,23.23
2017-09-01T10:26:40.624Z,23.34
2017-09-01T10:27:54.155Z,23.42
2017-09-01T10:29:07.725Z,23.41
2017-09-01T10:30:21.222Z,23.38
2017-09-01T10:31:35.068Z,23.31
2017-09-01T10:32:48.605Z,23.29
2017-09-01T10:34:02.115Z,23.29
2017-09-01T10:35:15.748Z,23.29
2017-09-01T10:36:29.928Z,23.26
2017-09-01T10:37:43.778Z,23.23
2017-09-01T10:38:57.327Z,23.26
2017-09-01T10:40:10.882Z,23.32
2017-09-01T10:41:24.415Z,23.4
2017-09-01T10:42:38.000Z,23.48
2017-09-01T10:43:52.067Z,23.57
2017-09-01T10:45:05.605Z,23.66
2017-09-01T10:46:19.563Z,23.71
2017-09-01T10:47:33.121Z,23.74
2017-09-01T10:48:46.691Z,23.73
2017-09-01T10:50:00.664Z,23.74
2017-09-01T10:51:14.580Z,23.75
2017-09-01T10:52:28.150Z,23.75
2017-09-01T10:53:41.724Z,23.75
2017-09-01T10:54:55.622Z,23.78
2017-09-01T10:56:09.541Z,23.81
2017-09-01T10:57:23.759Z,23.86
2017-09-01T10:58:38.034Z,23.82
2017-09-01T10:59:51.583Z,23.77
2017-09-01T11:01:05.151Z,23.67
2017-09-01T11:02:19.279Z,23.59
2017-09-01T11:03:32.828Z,23.54
2017-09-01T11:04:47.042Z,23.47
2017-09-01T11:06:01.289Z,23.48
2017-09-01T11:07:15.111Z,23.52
2017-09-01T11:08:28.951Z,23.57
2017-09-01T11:09:42.488Z,23.6
2017-09-01T11:10:56.017Z,23.6
2017-09-01T11:12:09.895Z,23.54
2017-09-01T11:13:23.396Z,23.49
2017-09-01T11:14:37.190Z,23.52
2017-09-01T11:15:50.733Z,23.58
2017-09-01T11:17:04.334Z,23.61
2017-09-01T11:18:17.844Z,23.66
2017-09-01T11:19:31.363Z,23.71
2017-09-01T11:20:45.179Z,23.7
2017-09-01T11:21:58.721Z,23.62
2017-09-01T11:23:12.358Z,23.56
2017-09-01T11:24:26.181Z,23.5
2017-09-01T11:25:39.725Z,23.45
2017-09-01T11:26:53.920Z,23.41
2017-09-01T11:28:08.426Z,23.38
2017-09-01T11:29:21.939Z,23.37
2017-09-01T11:30:35.474Z,23.33
2017-09-01T11:31:49.069Z,23.3
2017-09-01T11:33:02.938Z,23.29
2017-09-01T11:34:17.335Z,23.3
2017-09-01T11:35:30.839Z,23.36
2017-09-01T11:36:46.645Z,23.26
2017-09-01T11:38:00.197Z,23.15
2017-09-01T11:39:14.055Z,23.01
2017-09-01T11:40:27.922Z,22.92
2017-09-01T11:41:41.482Z,22.89
2017-09-01T11:42:55.009Z,22.86
2017-09-01T11:44:08.713Z,22.83
2017-09-01T11:45:22.537Z,22.89
2017-09-01T11:46:36.426Z,22.94
2017-09-01T11:47:49.977Z,22.93
2017-09-01T11:49:03.501Z,22.89
2017-09-01T11:50:17.251Z,22.87
2017-09-01T11:51:31.187Z,22.86
2017-09-01T11:52:46.843Z,22.87
2017-09-01T11:54:01.828Z,22.89
2017-09-01T11:55:17.265Z,22.87
2017-09-01T11:56:30.800Z,22.87
2017-09-01T11:57:44.787Z,22.79
2017-09-01T11:58:58.324Z,22.76
2017-09-01T12:00:11.871Z,22.7
2017-09-01T12:01:25.721Z,22.6
2017-09-01T12:02:39.250Z,22.52
2017-09-01T12:03:53.102Z,22.5
2017-09-01T12:05:06.964Z,22.49
2017-09-01T12:06:20.796Z,22.49
2017-09-01T12:07:34.304Z,22.47
2017-09-01T12:08:48.178Z,22.43
2017-09-01T12:10:02.684Z,22.43
2017-09-01T12:11:16.244Z,22.4
2017-09-01T12:12:29.769Z,22.42
2017-09-01T12:13:43.369Z,22.41
2017-09-01T12:14:56.926Z,22.46
2017-09-01T12:16:10.732Z,22.49
2017-09-01T12:17:24.273Z,22.51
2017-09-01T12:18:37.819Z,22.54
2017-09-01T12:19:51.444Z,22.56
2017-09-01T12:21:05.083Z,22.57
2017-09-01T12:22:19.378Z,22.55
2017-09-01T12:23:32.877Z,22.5
2017-09-01T12:24:46.730Z,22.47
2017-09-01T12:26:00.723Z,22.45
2017-09-01T12:27:15.249Z,22.43
2017-09-01T12:28:29.410Z,22.41
2017-09-01T12:29:43.594Z,22.37
2017-09-01T12:30:57.158Z,22.34
2017-09-01T12:32:10.647Z,22.33
2017-09-01T12:33:24.272Z,22.32
2017-09-01T12:34:38.521Z,22.31
2017-09-01T12:35:52.044Z,22.3
2017-09-01T12:37:05.592Z,22.28
2017-09-01T12:38:19.200Z,22.29
2017-09-01T12:39:32.799Z,22.32
2017-09-01T12:40:47.085Z,22.32
2017-09-01T12:42:00.720Z,22.33
2017-09-01T12:43:14.334Z,22.34
2017-09-01T12:44:28.346Z,22.35
2017-09-01T12:45:42.057Z,22.36
2017-09-01T12:46:56.288Z,22.38
2017-09-01T12:48:10.579Z,22.41
2017-09-01T12:49:24.145Z,22.45
2017-09-01T12:50:37.831Z,22.49
2017-09-01T12:51:51.715Z,22.54
2017-09-01T12:53:05.882Z,22.59
2017-09-01T12:54:19.412Z,22.65
2017-09-01T12:55:32.951Z,22.7
2017-09-01T12:56:46.704Z,22.73
2017-09-01T12:58:00.437Z,22.75
2017-09-01T12:59:14.577Z,22.76
2017-09-01T13:00:28.424Z,22.74
2017-09-01T13:01:41.974Z,22.72
2017-09-01T13:02:56.027Z,22.71
2017-09-01T13:04:09.559Z,22.7
2017-09-01T13:05:24.003Z,22.73
2017-09-01T13:06:37.783Z,22.72
2017-09-01T13:07:51.311Z,22.72
2017-09-01T13:09:04.893Z,22.78
2017-09-01T13:14:10.123Z,22.59
2017-09-01T13:15:23.967Z,22.5
2017-09-01T13:16:37.562Z,22.5
2017-09-01T13:17:51.204Z,22.52
2017-09-01T13:19:04.841Z,22.53
2017-09-01T13:20:18.854Z,22.59
2017-09-01T13:21:32.500Z,22.62
2017-09-01T13:22:46.316Z,22.65
2017-09-01T13:24:00.703Z,22.69
2017-09-01T13:25:14.299Z,22.69
2017-09-01T13:26:29.104Z,22.71
2017-09-01T13:27:42.663Z,22.69
2017-09-01T13:28:56.373Z,22.68
2017-09-01T13:30:09.926Z,22.7
2017-09-01T13:31:23.457Z,22.71
2017-09-01T13:32:37.705Z,22.7
2017-09-01T13:33:51.278Z,22.68
2017-09-01T13:35:04.875Z,22.64
2017-09-01T13:36:18.425Z,22.67
2017-09-01T13:37:32.046Z,22.7
2017-09-01T13:38:45.870Z,22.74
2017-09-01T13:39:59.454Z,22.77
2017-09-01T13:41:13.013Z,22.81
2017-09-01T13:42:26.542Z,22.84
2017-09-01T13:43:40.034Z,22.85
2017-09-01T13:44:55.675Z,22.88
2017-09-01T13:46:09.197Z,22.92
2017-09-01T13:47:22.738Z,22.95
2017-09-01T13:48:36.642Z,23
2017-09-01T13:49:50.729Z,22.99
2017-09-01T13:51:05.364Z,23.01
2017-09-01T13:52:18.906Z,23.04
2017-09-01T13:53:32.761Z,23.07
2017-09-01T13:54:46.756Z,23.09
2017-09-01T13:56:00.665Z,23.1
2017-09-01T13:57:14.829Z,23.14
2017-09-01T13:58:28.760Z,23.18
2017-09-01T13:59:42.629Z,23.27
2017-09-01T14:00:56.378Z,23.36
2017-09-01T14:02:10.034Z,23.43
2017-09-01T14:03:23.835Z,23.54
2017-09-01T14:04:37.471Z,23.61
2017-09-01T14:05:51.441Z,23.61
2017-09-01T14:07:04.984Z,23.57
2017-09-01T14:08:18.540Z,23.55
2017-09-01T14:09:32.366Z,23.53
2017-09-01T14:10:45.940Z,23.51
2017-09-01T14:11:59.687Z,23.47
2017-09-01T14:13:13.284Z,23.47
2017-09-01T14:14:26.842Z,23.47
2017-09-01T14:15:40.754Z,23.49
2017-09-01T14:16:54.879Z,23.5
2017-09-01T14:18:08.521Z,23.49
2017-09-01T14:19:22.514Z,23.47
2017-09-01T14:20:36.039Z,23.46
2017-09-01T14:21:49.946Z,23.44
2017-09-01T14:23:03.774Z,23.4
2017-09-01T14:24:17.297Z,23.32
2017-09-01T14:25:30.836Z,23.26
2017-09-01T14:26:44.845Z,23.2
2017-09-01T14:27:58.681Z,23.2
2017-09-01T14:29:12.520Z,23.18
2017-09-01T14:30:26.032Z,23.19
2017-09-01T14:31:39.612Z,23.24
2017-09-01T14:32:53.321Z,23.32
2017-09-01T14:34:07.225Z,23.32
2017-09-01T14:35:20.800Z,23.31
2017-09-01T14:36:34.328Z,23.33
2017-09-01T14:37:48.252Z,23.35
2017-09-01T14:39:01.800Z,23.4
2017-09-01T14:40:15.654Z,23.41
2017-09-01T14:41:29.373Z,23.45
2017-09-01T14:42:42.949Z,23.47
2017-09-01T14:43:56.861Z,23.46
2017-09-01T14:45:10.442Z,23.45
2017-09-01T14:46:24.275Z,23.44
2017-09-01T14:47:37.793Z,23.45
2017-09-01T14:48:51.826Z,23.48
2017-09-01T14:50:05.744Z,23.51
2017-09-01T14:51:19.300Z,23.53
2017-09-01T14:52:33.151Z,23.58
2017-09-01T14:53:47.093Z,23.62
2017-09-01T14:55:00.733Z,23.67
2017-09-01T14:56:14.281Z,23.7
2017-09-01T14:57:28.032Z,23.75
2017-09-01T14:58:41.917Z,23.77
2017-09-01T14:59:55.492Z,23.76
2017-09-01T15:01:09.294Z,23.74
2017-09-01T15:02:23.181Z,23.69
2017-09-01T15:03:36.756Z,23.57
2017-09-01T15:04:50.849Z,23.5
2017-09-01T15:06:04.386Z,23.43
2017-09-01T15:07:17.905Z,23.38
2017-09-01T15:08:31.513Z,23.34
2017-09-01T15:09:45.396Z,23.27
2017-09-01T15:10:59.268Z,23.19
2017-09-01T15:12:12.780Z,23.12
2017-09-01T15:13:26.581Z,23.05
2017-09-01T15:14:40.179Z,22.95
2017-09-01T15:15:54.095Z,22.86
2017-09-01T15:17:07.918Z,22.83
2017-09-01T15:18:21.764Z,22.82
2017-09-01T15:19:35.563Z,22.82
2017-09-01T15:20:49.442Z,22.83
2017-09-01T15:22:02.963Z,22.81
2017-09-01T15:23:16.903Z,22.8
2017-09-01T15:24:30.500Z,22.78
2017-09-01T15:25:44.656Z,22.78
2017-09-01T15:26:58.310Z,22.74
2017-09-01T15:28:11.881Z,22.71
2017-09-01T15:29:25.765Z,22.7
2017-09-01T15:30:39.380Z,22.72
2017-09-01T15:31:53.038Z,22.71
2017-09-01T15:33:06.568Z,22.66
2017-09-01T15:34:20.142Z,22.63
2017-09-01T15:35:33.996Z,22.63
2017-09-01T15:36:47.529Z,22.67
2017-09-01T15:38:01.145Z,22.73
2017-09-01T15:39:15.571Z,22.86
2017-09-01T15:40:29.257Z,22.95
2017-09-01T15:41:43.418Z,23.05
2017-09-01T15:43:11.764Z,23.15
2017-09-01T15:44:25.651Z,23.22
2017-09-01T15:45:39.487Z,23.31
2017-09-01T15:46:53.075Z,23.36
2017-09-01T15:48:07.131Z,23.38
2017-09-01T15:49:20.962Z,23.35
2017-09-01T15:50:34.475Z,23.33
2017-09-01T15:51:48.275Z,23.3
2017-09-01T15:53:01.816Z,23.32
2017-09-01T15:54:15.700Z,23.31
2017-09-01T15:55:29.259Z,23.27
2017-09-01T15:56:42.770Z,23.21
2017-09-01T15:57:56.311Z,23.17
2017-09-01T15:59:09.923Z,23.17
2017-09-01T16:00:23.764Z,23.14
2017-09-01T16:01:37.362Z,23.08
2017-09-01T16:02:50.913Z,23.02